Time;durP1;ratioP1;P1;durP2;ratioP2;P2;SDS_P1;SDS_P2;PMS_P1;PMS_P2;Temp;Humidity;BMP_temperature;BMP_pressure;BME280_temperature;BME280_humidity;BME280_pressure;Samples;Min_cycle;Max_cycle;Signal;HPM_P1;HPM_P2
2021/11/03 00:00:45;;;;;;;2.03;1.83;;;8.20;99.90;;;;;;6179717;23;20687;-93
2021/11/03 00:03:21;;;;;;;4.00;1.33;;;8.20;99.90;;;;;;6180267;23;20211;-93
2021/11/03 00:05:50;;;;;;;1.63;1.53;;;8.20;99.90;;;;;;6178058;23;20273;-93
2021/11/03 00:08:29;;;;;;;3.27;2.23;;;8.30;99.90;;;;;;6165592;23;20607;-94
2021/11/03 00:11:00;;;;;;;2.33;2.07;;;8.30;99.90;;;;;;6174491;23;20146;-94
2021/11/03 00:13:29;;;;;;;1.53;1.20;;;8.40;99.90;;;;;;6158460;23;20916;-93
2021/11/03 00:16:03;;;;;;;0.50;0.50;;;8.40;99.90;;;;;;6182859;23;20194;-94
2021/11/03 00:18:29;;;;;;;1.17;0.87;;;8.50;99.90;;;;;;6169031;23;20198;-94
2021/11/03 00:20:57;;;;;;;0.83;0.83;;;8.60;99.90;;;;;;6154755;23;20320;-93
2021/11/03 00:23:24;;;;;;;2.30;0.97;;;8.60;99.90;;;;;;6168671;23;20197;-94
2021/11/03 00:25:50;;;;;;;0.50;0.50;;;8.60;99.90;;;;;;6181125;23;20169;-93
2021/11/03 00:28:18;;;;;;;0.37;0.37;;;8.70;99.90;;;;;;6179183;23;20220;-94
2021/11/03 00:30:49;;;;;;;1.17;1.17;;;8.70;99.90;;;;;;6180071;23;20888;-92
2021/11/03 00:33:19;;;;;;;0.20;0.20;;;8.70;99.90;;;;;;6180473;23;20198;-93
2021/11/03 00:35:45;;;;;;;1.20;0.40;;;8.70;99.90;;;;;;6180249;23;20918;-93
2021/11/03 00:38:11;;;;;;;0.73;0.73;;;8.60;99.90;;;;;;6179597;23;20154;-93
2021/11/03 00:40:38;;;;;;;0.57;0.57;;;8.60;99.90;;;;;;6181121;23;20196;-95
2021/11/03 00:43:07;;;;;;;0.30;0.30;;;8.50;99.90;;;;;;6179529;23;20193;-93
2021/11/03 00:45:33;;;;;;;0.43;0.40;;;8.50;99.90;;;;;;6179655;23;20197;-93
2021/11/03 00:47:59;;;;;;;0.30;0.30;;;8.50;99.90;;;;;;6154554;23;20212;-94
2021/11/03 00:50:25;;;;;;;0.40;0.40;;;8.50;99.90;;;;;;6169400;23;20193;-94
2021/11/03 00:52:55;;;;;;;0.37;0.37;;;8.50;99.90;;;;;;6181153;23;20189;-93
2021/11/03 00:55:24;;;;;;;0.40;0.40;;;8.50;99.90;;;;;;6181422;23;20154;-94
2021/11/03 00:57:52;;;;;;;0.47;0.47;;;8.40;99.90;;;;;;6180167;23;20201;-94
2021/11/03 01:00:25;;;;;;;0.40;0.23;;;8.40;99.90;;;;;;6179482;23;20750;-94
2021/11/03 01:02:51;;;;;;;0.50;0.47;;;8.40;99.90;;;;;;6166759;23;20201;-94
2021/11/03 01:05:21;;;;;;;10.83;0.80;;;8.30;99.90;;;;;;6155547;23;20197;-94
2021/11/03 01:07:48;;;;;;;0.47;0.47;;;8.30;99.90;;;;;;6180741;23;20146;-94
2021/11/03 01:10:19;;;;;;;0.20;0.20;;;8.20;99.90;;;;;;6179965;23;20209;-93
2021/11/03 01:12:47;;;;;;;0.43;0.43;;;8.20;99.90;;;;;;6180416;23;20737;-93
2021/11/03 01:15:18;;;;;;;0.90;0.90;;;8.20;99.90;;;;;;6191450;23;20197;-93
2021/11/03 01:17:44;;;;;;;0.63;0.63;;;8.00;99.90;;;;;;6179416;23;20202;-94
2021/11/03 01:20:11;;;;;;;0.53;0.53;;;8.00;99.90;;;;;;6179466;23;20193;-95
2021/11/03 01:22:39;;;;;;;0.67;0.67;;;8.00;99.90;;;;;;6181288;23;20172;-95
2021/11/03 01:25:06;;;;;;;0.50;0.50;;;7.90;99.90;;;;;;6181368;23;20198;-95
2021/11/03 01:27:32;;;;;;;1.80;0.60;;;7.80;99.90;;;;;;6180123;23;20388;-95
2021/11/03 01:29:58;;;;;;;0.50;0.50;;;7.80;99.90;;;;;;6178948;23;20221;-95
2021/11/03 01:32:24;;;;;;;0.30;0.30;;;7.70;99.90;;;;;;6179147;23;20256;-94
2021/11/03 01:34:50;;;;;;;0.30;0.30;;;7.60;99.90;;;;;;6176722;23;20467;-94
2021/11/03 01:37:16;;;;;;;0.37;0.20;;;7.50;99.90;;;;;;6174694;23;20194;-95
2021/11/03 01:39:42;;;;;;;1.17;0.37;;;7.50;99.90;;;;;;6174975;23;20639;-94
2021/11/03 01:42:08;;;;;;;0.60;0.60;;;7.40;99.90;;;;;;6174738;23;20198;-94
2021/11/03 01:44:37;;;;;;;0.40;0.40;;;7.40;99.90;;;;;;6176219;23;20197;-95
2021/11/03 01:47:39;;;;;;;0.77;0.30;;;7.40;99.90;;;;;;6178961;23;20182;-95
2021/11/03 01:50:10;;;;;;;0.40;0.40;;;7.30;99.90;;;;;;6182108;23;20165;-95
2021/11/03 01:52:40;;;;;;;0.53;0.53;;;7.30;99.90;;;;;;6182422;23;20158;-94
2021/11/03 01:55:11;;;;;;;0.80;0.80;;;7.30;99.90;;;;;;6182027;23;20202;-94
2021/11/03 01:57:46;;;;;;;0.50;0.50;;;7.30;99.90;;;;;;6182039;23;20225;-94
2021/11/03 02:00:33;;;;;;;0.27;0.27;;;7.30;99.90;;;;;;6184567;23;20209;-94
2021/11/03 02:03:11;;;;;;;0.33;0.33;;;7.40;99.90;;;;;;6167438;23;20677;-94
2021/11/03 02:05:41;;;;;;;0.93;0.50;;;7.40;99.90;;;;;;6181122;23;20221;-95
2021/11/03 02:08:11;;;;;;;1.80;1.27;;;7.30;99.90;;;;;;6167916;23;20225;-95
2021/11/03 02:10:39;;;;;;;2.57;0.97;;;7.30;99.90;;;;;;6183055;23;20596;-93
2021/11/03 02:13:12;;;;;;;12.83;1.50;;;7.40;99.90;;;;;;6178544;23;20198;-94
2021/11/03 02:15:48;;;;;;;5.80;0.70;;;7.30;99.90;;;;;;6163632;23;20197;-95
2021/11/03 02:18:18;;;;;;;1.00;0.73;;;7.30;99.90;;;;;;6176228;23;20202;-95
2021/11/03 02:21:09;;;;;;;1.33;0.80;;;7.30;99.90;;;;;;6176186;23;20538;-95
2021/11/03 02:24:18;;;;;;;;;;;;;;;;;;;;;
2021/11/03 02:26:49;;;;;;;0.60;0.60;;;7.20;99.90;;;;;;6206598;23;20575;-94
2021/11/03 02:29:23;;;;;;;0.70;0.70;;;7.10;99.90;;;;;;6181401;23;20194;-95
2021/11/03 02:31:53;;;;;;;1.03;1.03;;;7.10;99.90;;;;;;6182140;23;20272;-95
2021/11/03 02:34:30;;;;;;;1.00;0.60;;;7.10;99.90;;;;;;6181007;23;20217;-95
2021/11/03 02:36:59;;;;;;;1.10;1.03;;;7.00;99.90;;;;;;6179822;23;20289;-95
2021/11/03 02:39:41;;;;;;;0.97;0.80;;;7.00;99.90;;;;;;6178714;23;20210;-94
2021/11/03 02:42:08;;;;;;;1.20;1.10;;;7.00;99.90;;;;;;6176086;23;20202;-94
2021/11/03 02:44:37;;;;;;;1.30;1.23;;;7.00;99.90;;;;;;6180336;23;20386;-94
2021/11/03 02:47:04;;;;;;;1.20;1.20;;;7.00;99.90;;;;;;6180557;23;20158;-95
2021/11/03 02:49:33;;;;;;;0.33;0.33;;;7.10;99.90;;;;;;6183403;23;20158;-94
2021/11/03 02:52:35;;;;;;;;;;;;;;;;;;;;;
2021/11/03 02:55:07;;;;;;;0.90;0.90;;;7.00;99.90;;;;;;6207245;23;20346;-95
2021/11/03 02:57:36;;;;;;;0.90;0.90;;;7.00;99.90;;;;;;6169547;23;20225;-94
2021/11/03 03:00:08;;;;;;;1.07;1.07;;;6.90;99.90;;;;;;6190071;23;20214;-94
2021/11/03 03:02:34;;;;;;;0.80;0.80;;;6.90;99.90;;;;;;6205993;23;20272;-93
2021/11/03 03:05:00;;;;;;;0.50;0.50;;;6.90;99.90;;;;;;6205487;22;20158;-94
2021/11/03 03:07:26;;;;;;;1.03;1.00;;;6.80;99.90;;;;;;6206764;23;20150;-93
2021/11/03 03:09:52;;;;;;;1.17;0.73;;;6.80;99.90;;;;;;6205675;23;20201;-94
2021/11/03 03:12:25;;;;;;;1.00;0.90;;;6.80;99.90;;;;;;6197038;23;20250;-95
2021/11/03 03:15:00;;;;;;;3.77;1.27;;;6.70;99.90;;;;;;6204749;23;20197;-94
2021/11/03 03:17:37;;;;;;;1.93;1.73;;;6.70;99.90;;;;;;6195463;23;20247;-94
2021/11/03 03:20:10;;;;;;;1.10;0.80;;;6.80;99.90;;;;;;6204333;22;20189;-94
2021/11/03 03:22:36;;;;;;;0.67;0.67;;;6.70;99.90;;;;;;6206811;23;20173;-95
2021/11/03 03:25:23;;;;;;;0.67;0.67;;;6.70;99.90;;;;;;6168641;23;20261;-95
2021/11/03 03:27:51;;;;;;;1.87;1.40;;;6.70;99.90;;;;;;6179860;23;20229;-95
2021/11/03 03:30:20;;;;;;;1.07;0.80;;;6.60;99.90;;;;;;6205885;23;20198;-94
2021/11/03 03:32:48;;;;;;;1.10;1.10;;;6.70;99.90;;;;;;6205980;23;20210;-95
2021/11/03 03:35:21;;;;;;;1.27;1.07;;;6.70;99.90;;;;;;6205958;22;25662;-95
2021/11/03 03:37:57;;;;;;;1.10;1.07;;;6.70;99.90;;;;;;6182387;22;20162;-93
2021/11/03 03:40:23;;;;;;;0.73;0.70;;;6.70;99.90;;;;;;6206461;23;20502;-95
2021/11/03 03:42:49;;;;;;;1.53;1.43;;;6.60;99.90;;;;;;6205787;23;20207;-95
2021/11/03 03:45:38;;;;;;;0.93;0.93;;;6.60;99.90;;;;;;6181813;23;20240;-95
2021/11/03 03:48:07;;;;;;;0.67;0.67;;;6.60;99.90;;;;;;6175162;23;20237;-94
2021/11/03 03:50:37;;;;;;;1.07;1.03;;;6.50;99.90;;;;;;6201582;23;20736;-95
2021/11/03 03:53:16;;;;;;;1.17;1.17;;;6.60;99.90;;;;;;6188930;22;20218;-94
2021/11/03 03:58:53;;;;;;;1.47;0.80;;;6.60;99.90;;;;;;6167174;23;20189;-95
2021/11/03 04:01:22;;;;;;;1.57;1.47;;;6.50;99.90;;;;;;6203341;23;20236;-94
2021/11/03 04:03:50;;;;;;;1.23;1.13;;;6.60;99.90;;;;;;6203546;23;20197;-93
2021/11/03 04:06:17;;;;;;;1.63;1.30;;;6.50;99.90;;;;;;6203950;23;20247;-94
2021/11/03 04:08:43;;;;;;;1.97;1.23;;;6.50;99.90;;;;;;6194772;23;20278;-94
2021/11/03 04:11:09;;;;;;;1.80;1.50;;;6.50;99.90;;;;;;6204747;22;20910;-94
2021/11/03 04:13:38;;;;;;;1.87;1.27;;;6.40;99.90;;;;;;6206394;23;20497;-95
2021/11/03 04:16:04;;;;;;;8.10;2.20;;;6.40;99.90;;;;;;6205072;23;20208;-93
2021/11/03 04:18:38;;;;;;;1.33;1.27;;;6.40;99.90;;;;;;6193072;23;20197;-94
2021/11/03 04:21:07;;;;;;;0.87;0.87;;;6.40;99.90;;;;;;6205206;23;20214;-94
2021/11/03 04:23:33;;;;;;;2.80;1.83;;;6.50;99.90;;;;;;6196998;23;20189;-93
2021/11/03 04:25:59;;;;;;;4.57;2.47;;;6.50;99.90;;;;;;6204291;22;20158;-94
2021/11/03 04:28:30;;;;;;;2.77;1.53;;;6.50;99.90;;;;;;6205887;23;20323;-93
2021/11/03 04:31:02;;;;;;;1.90;1.10;;;6.60;99.90;;;;;;6194737;23;20771;-93
2021/11/03 04:33:30;;;;;;;4.13;3.03;;;6.60;99.90;;;;;;6181606;23;20220;-93
2021/11/03 04:35:58;;;;;;;3.87;3.50;;;6.60;99.90;;;;;;6205163;23;20641;-93
2021/11/03 04:38:24;;;;;;;5.33;3.07;;;6.60;99.90;;;;;;6164871;23;20272;-92
2021/11/03 04:40:52;;;;;;;3.27;2.40;;;6.70;99.90;;;;;;6205872;23;20940;-93
2021/11/03 04:43:24;;;;;;;5.27;4.17;;;6.70;99.90;;;;;;6193862;23;20281;-94
2021/11/03 04:45:50;;;;;;;15.47;4.73;;;6.80;99.90;;;;;;6204676;23;20828;-93
2021/11/03 04:48:16;;;;;;;5.33;4.80;;;6.70;99.90;;;;;;6205472;23;20224;-93
2021/11/03 04:50:42;;;;;;;8.83;5.20;;;6.70;99.90;;;;;;6205186;23;20210;-92
2021/11/03 04:53:08;;;;;;;13.87;4.60;;;6.70;99.90;;;;;;6204701;22;20240;-93
2021/11/03 04:55:34;;;;;;;8.40;5.50;;;6.70;99.90;;;;;;6206226;23;20168;-92
2021/11/03 04:58:00;;;;;;;8.70;5.33;;;6.60;99.90;;;;;;6205079;23;20197;-92
2021/11/03 05:00:34;;;;;;;5.97;4.37;;;6.60;99.90;;;;;;6196219;23;20213;-93
2021/11/03 05:03:02;;;;;;;5.03;4.53;;;6.50;99.90;;;;;;6205482;23;20676;-93
2021/11/03 05:05:31;;;;;;;7.33;4.83;;;6.50;99.90;;;;;;6203918;23;20198;-93
2021/11/03 05:07:59;;;;;;;6.97;3.87;;;6.50;99.90;;;;;;6179753;22;20194;-93
2021/11/03 05:10:28;;;;;;;6.27;4.63;;;6.60;99.90;;;;;;6181548;23;20176;-93
2021/11/03 05:12:54;;;;;;;9.50;5.03;;;6.50;99.90;;;;;;6205590;23;20194;-94
2021/11/03 05:15:20;;;;;;;2.87;2.67;;;6.50;99.90;;;;;;6205408;23;20200;-95
2021/11/03 05:17:49;;;;;;;6.50;5.47;;;6.60;99.90;;;;;;6206485;23;20225;-93
2021/11/03 05:20:21;;;;;;;7.97;4.90;;;6.50;99.90;;;;;;6207163;22;20209;-94
2021/11/03 05:22:48;;;;;;;6.23;4.73;;;6.50;99.90;;;;;;6186313;23;20817;-91
2021/11/03 05:25:28;;;;;;;18.13;5.43;;;6.50;99.90;;;;;;6192968;23;20371;-95
2021/11/03 05:27:55;;;;;;;6.63;5.13;;;6.50;99.90;;;;;;6209244;23;20202;-96
2021/11/03 05:30:58;;;;;;;7.77;5.73;;;6.50;99.90;;;;;;6210478;23;20202;-94
2021/11/03 05:34:24;;;;;;;6.47;5.33;;;6.50;99.90;;;;;;6185486;23;20190;-95
2021/11/03 05:37:22;;;;;;;7.00;3.30;;;6.50;99.90;;;;;;6148041;23;20212;-93
2021/11/03 05:39:51;;;;;;;11.23;6.37;;;6.50;99.90;;;;;;6172027;23;20200;-95
2021/11/03 05:42:41;;;;;;;11.43;4.90;;;6.60;99.90;;;;;;6193068;23;20473;-94
2021/11/03 05:45:13;;;;;;;7.33;6.63;;;6.70;99.90;;;;;;6211726;23;20197;-93
2021/11/03 05:47:41;;;;;;;4.67;4.27;;;6.80;99.90;;;;;;6214871;23;20258;-94
2021/11/03 05:50:30;;;;;;;;;;;;;;;;;;;;;
2021/11/03 05:53:16;;;;;;;6.80;5.40;;;6.90;99.90;;;;;;6212884;22;20154;-95
2021/11/03 05:56:06;;;;;;;7.73;5.17;;;6.90;99.90;;;;;;6203760;23;20148;-94
2021/11/03 05:58:55;;;;;;;8.20;5.93;;;6.90;99.90;;;;;;6199777;23;20194;-95
2021/11/03 06:01:27;;;;;;;13.47;5.43;;;7.00;99.90;;;;;;6157663;23;20233;-95
2021/11/03 06:03:55;;;;;;;8.50;5.43;;;7.10;99.90;;;;;;6219502;23;20205;-94
2021/11/03 06:06:36;;;;;;;10.07;7.20;;;7.10;99.90;;;;;;6215195;23;20251;-94
2021/11/03 06:09:04;;;;;;;6.67;5.13;;;7.10;99.90;;;;;;6210119;23;20193;-94
2021/11/03 06:11:31;;;;;;;14.33;6.93;;;7.20;99.90;;;;;;6205731;23;20200;-90
2021/11/03 06:13:57;;;;;;;15.90;7.23;;;7.30;99.90;;;;;;6182535;22;20224;-94
2021/11/03 06:16:24;;;;;;;15.83;8.77;;;7.30;99.90;;;;;;6179877;23;20404;-93
2021/11/03 06:18:51;;;;;;;7.10;5.43;;;7.40;99.90;;;;;;6203849;23;20217;-92
2021/11/03 06:21:18;;;;;;;8.33;5.93;;;7.40;99.90;;;;;;6204488;23;20210;-92
2021/11/03 06:23:44;;;;;;;9.90;5.87;;;7.50;99.90;;;;;;6202933;23;20222;-90
2021/11/03 06:26:18;;;;;;;12.30;6.00;;;7.50;99.90;;;;;;6202131;22;20161;-92
2021/11/03 06:28:44;;;;;;;15.40;8.00;;;7.50;99.90;;;;;;6204641;23;20145;-88
2021/11/03 06:31:12;;;;;;;22.27;9.00;;;7.60;99.90;;;;;;6202851;23;20225;-91
2021/11/03 06:33:39;;;;;;;8.53;7.73;;;7.50;99.90;;;;;;6203922;23;20276;-90
2021/11/03 06:36:07;;;;;;;14.27;9.70;;;7.60;99.90;;;;;;6203552;23;20289;-92
2021/11/03 06:41:09;;;;;;;10.43;6.93;;;7.60;99.90;;;;;;6186406;23;20223;-87
2021/11/03 06:43:36;;;;;;;11.47;5.57;;;7.60;99.90;;;;;;6123746;23;20664;-86
2021/11/03 06:46:02;;;;;;;14.33;7.67;;;7.60;99.90;;;;;;6147265;23;20659;-87
2021/11/03 06:48:28;;;;;;;13.57;6.73;;;7.60;99.90;;;;;;6122452;23;20203;-88
2021/11/03 06:50:54;;;;;;;12.27;8.03;;;7.60;99.90;;;;;;6147693;23;20207;-84
2021/11/03 06:53:23;;;;;;;11.03;7.33;;;7.70;99.90;;;;;;6122435;23;20210;-85
2021/11/03 06:55:50;;;;;;;12.50;6.27;;;7.70;99.90;;;;;;6148606;23;20160;-86
2021/11/03 06:58:17;;;;;;;9.03;6.40;;;7.80;99.90;;;;;;6146583;23;20206;-86
2021/11/03 07:00:46;;;;;;;8.60;7.13;;;7.80;99.90;;;;;;6122245;23;20981;-86
2021/11/03 07:03:12;;;;;;;11.33;6.97;;;7.90;99.90;;;;;;6122043;23;20198;-86
2021/11/03 07:05:43;;;;;;;7.70;5.80;;;7.90;99.90;;;;;;6122366;23;20211;-87
2021/11/03 07:08:10;;;;;;;10.83;6.97;;;8.00;99.90;;;;;;6122935;23;20202;-86
2021/11/03 07:10:40;;;;;;;17.57;9.47;;;8.00;99.90;;;;;;6149140;23;20171;-85
2021/11/03 07:13:07;;;;;;;10.97;9.87;;;8.00;99.90;;;;;;6122570;23;20204;-86
2021/11/03 07:15:33;;;;;;;24.97;6.53;;;8.00;99.90;;;;;;6146576;23;20326;-86
2021/11/03 07:18:06;;;;;;;13.00;8.60;;;8.00;99.90;;;;;;6126381;23;20191;-94
2021/11/03 07:20:32;;;;;;;13.17;8.07;;;8.00;99.90;;;;;;6122650;23;20278;-87
2021/11/03 07:22:58;;;;;;;14.50;8.40;;;8.10;99.90;;;;;;6147272;23;20251;-86
2021/11/03 07:25:26;;;;;;;10.17;6.27;;;8.10;99.90;;;;;;6172113;23;20218;-87
2021/11/03 07:27:54;;;;;;;9.13;6.20;;;8.00;99.90;;;;;;6146705;23;20203;-87
2021/11/03 07:30:23;;;;;;;14.53;7.97;;;7.90;99.90;;;;;;6146610;23;20578;-86
2021/11/03 07:32:48;;;;;;;11.63;6.23;;;7.90;99.90;;;;;;6122478;23;20199;-87
2021/11/03 07:35:14;;;;;;;13.87;7.07;;;8.00;99.90;;;;;;6122372;23;20158;-87
2021/11/03 07:37:40;;;;;;;9.47;7.60;;;7.90;99.90;;;;;;6123172;23;20158;-87
2021/11/03 07:40:11;;;;;;;11.10;6.20;;;7.90;99.90;;;;;;6146326;23;20211;-91
2021/11/03 07:42:37;;;;;;;15.17;8.90;;;7.90;99.90;;;;;;6122376;23;20306;-87
2021/11/03 07:45:05;;;;;;;14.53;7.10;;;7.90;99.90;;;;;;6147028;23;20648;-89
2021/11/03 07:47:31;;;;;;;14.80;8.37;;;7.90;99.90;;;;;;6122248;23;20247;-88
2021/11/03 07:49:57;;;;;;;11.27;7.23;;;7.90;99.90;;;;;;6122759;23;20170;-88
2021/11/03 07:52:22;;;;;;;10.60;6.33;;;8.00;99.90;;;;;;6122937;23;20509;-87
2021/11/03 07:54:48;;;;;;;9.63;6.93;;;8.00;99.90;;;;;;6122150;23;20207;-89
2021/11/03 07:57:14;;;;;;;12.80;7.53;;;8.10;99.90;;;;;;6121821;23;20199;-87
2021/11/03 07:59:40;;;;;;;13.50;8.67;;;8.10;99.90;;;;;;6170839;23;20199;-88
2021/11/03 08:02:06;;;;;;;19.50;7.47;;;8.20;99.90;;;;;;6122026;23;20176;-87
2021/11/03 08:04:32;;;;;;;11.93;8.73;;;8.30;99.90;;;;;;6146467;23;20211;-89
2021/11/03 08:07:04;;;;;;;20.17;11.00;;;8.20;99.90;;;;;;6148008;23;20191;-90
2021/11/03 08:09:31;;;;;;;16.47;8.83;;;8.30;99.90;;;;;;6148147;23;20198;-90
2021/11/03 08:11:59;;;;;;;12.40;7.03;;;8.40;99.90;;;;;;6146483;23;20203;-87
2021/11/03 08:14:28;;;;;;;11.97;8.03;;;8.40;99.90;;;;;;6146074;23;20644;-91
2021/11/03 08:16:59;;;;;;;10.83;7.47;;;8.40;99.90;;;;;;6122676;23;20155;-88
2021/11/03 08:19:34;;;;;;;14.53;7.23;;;8.40;99.90;;;;;;6122377;23;20266;-89
2021/11/03 08:22:06;;;;;;;13.23;7.73;;;8.60;99.90;;;;;;6125239;23;20202;-90
2021/11/03 08:24:32;;;;;;;11.67;6.80;;;8.60;99.90;;;;;;6122538;23;20648;-88
2021/11/03 08:26:58;;;;;;;10.53;8.17;;;8.80;99.90;;;;;;6146267;23;20229;-87
2021/11/03 08:29:24;;;;;;;14.37;8.93;;;8.90;99.90;;;;;;6146360;23;20191;-89
2021/11/03 08:31:55;;;;;;;9.97;7.33;;;9.10;99.90;;;;;;6147094;23;20561;-88
2021/11/03 08:34:25;;;;;;;11.70;6.73;;;9.30;99.90;;;;;;6122662;23;20585;-89
2021/11/03 08:36:52;;;;;;;16.53;10.73;;;9.40;99.90;;;;;;6146547;23;20222;-89
2021/11/03 08:39:18;;;;;;;14.60;9.70;;;9.70;99.90;;;;;;6147491;23;20589;-88
2021/11/03 08:41:44;;;;;;;13.80;8.20;;;10.10;99.90;;;;;;6174050;23;20214;-90
2021/11/03 08:44:10;;;;;;;18.37;10.77;;;10.10;99.90;;;;;;6151901;23;20221;-88
2021/11/03 08:46:35;;;;;;;17.53;7.27;;;10.30;99.90;;;;;;6152559;23;20972;-89
2021/11/03 08:49:03;;;;;;;19.40;8.73;;;10.30;99.90;;;;;;6151720;23;20198;-89
2021/11/03 08:51:33;;;;;;;18.60;11.40;;;10.70;99.90;;;;;;6154037;23;20202;-90
2021/11/03 08:54:01;;;;;;;16.87;9.33;;;10.80;99.90;;;;;;6153196;23;20202;-92
2021/11/03 08:56:27;;;;;;;17.33;10.47;;;10.90;99.90;;;;;;6176164;23;20531;-91
2021/11/03 08:58:54;;;;;;;17.47;10.90;;;11.00;99.90;;;;;;6152814;23;20159;-91
2021/11/03 09:01:21;;;;;;;17.37;10.50;;;10.90;99.90;;;;;;6151351;23;20535;-92
2021/11/03 09:03:48;;;;;;;13.80;9.80;;;11.00;99.90;;;;;;6182046;23;20199;-91
2021/11/03 09:06:14;;;;;;;17.70;10.47;;;11.10;99.90;;;;;;6207090;23;20203;-91
2021/11/03 09:08:41;;;;;;;15.73;9.37;;;11.30;99.90;;;;;;6157511;23;20274;-91
2021/11/03 09:11:08;;;;;;;12.27;8.57;;;11.50;99.90;;;;;;6156933;23;20155;-91
2021/11/03 09:13:35;;;;;;;10.73;8.57;;;11.50;99.90;;;;;;6181663;23;20155;-93
2021/11/03 09:16:02;;;;;;;16.97;7.50;;;11.60;99.90;;;;;;6156197;23;20202;-90
2021/11/03 09:18:29;;;;;;;15.97;10.93;;;11.50;99.90;;;;;;6180893;23;20203;-91
2021/11/03 09:20:56;;;;;;;12.33;8.03;;;11.30;99.90;;;;;;6181116;23;20281;-92
2021/11/03 09:23:23;;;;;;;12.43;8.17;;;11.20;99.90;;;;;;6206487;23;20639;-91
2021/11/03 09:25:51;;;;;;;11.13;7.67;;;11.20;99.90;;;;;;6156680;23;20163;-91
2021/11/03 09:28:19;;;;;;;17.73;9.17;;;11.30;99.90;;;;;;6156318;23;20209;-91
2021/11/03 09:30:45;;;;;;;12.27;9.33;;;11.30;99.90;;;;;;6155866;23;20202;-91
2021/11/03 09:33:11;;;;;;;14.40;10.10;;;11.30;99.90;;;;;;6206079;23;20199;-91
2021/11/03 09:35:41;;;;;;;16.27;10.60;;;11.20;99.90;;;;;;6181046;23;20198;-90
2021/11/03 09:38:10;;;;;;;12.03;6.87;;;11.10;99.90;;;;;;6156110;23;20155;-91
2021/11/03 09:40:43;;;;;;;12.63;7.20;;;11.00;99.90;;;;;;6156311;23;20668;-92
2021/11/03 09:43:37;;;;;;;13.07;9.07;;;11.00;99.90;;;;;;6206018;23;20198;-91
2021/11/03 09:46:21;;;;;;;11.40;7.67;;;10.90;99.90;;;;;;6155794;23;20206;-91
2021/11/03 09:48:58;;;;;;;8.50;7.00;;;10.80;99.90;;;;;;6157272;23;20257;-92
2021/11/03 09:51:28;;;;;;;9.87;7.40;;;10.60;99.90;;;;;;6157511;23;20226;-91
2021/11/03 09:53:57;;;;;;;8.93;6.27;;;10.50;99.90;;;;;;6157829;23;20222;-91
2021/11/03 09:56:35;;;;;;;10.07;7.03;;;10.50;99.90;;;;;;6157856;23;20191;-90
2021/11/03 09:59:19;;;;;;;8.80;6.43;;;10.50;99.90;;;;;;6157981;23;20163;-91
2021/11/03 10:01:51;;;;;;;12.80;7.03;;;10.40;99.90;;;;;;6208589;23;20206;-91
2021/11/03 10:04:59;;;;;;;12.47;6.20;;;10.40;99.90;;;;;;6208739;23;20194;-92
2021/11/03 10:07:45;;;;;;;7.67;5.60;;;10.30;99.90;;;;;;6138850;23;20182;-94
2021/11/03 10:10:33;;;;;;;10.80;5.53;;;10.20;99.90;;;;;;6156445;23;20277;-91
2021/11/03 10:13:16;;;;;;;8.10;5.97;;;10.20;99.90;;;;;;6155912;23;20532;-92
2021/11/03 10:16:11;;;;;;;9.90;6.53;;;10.10;99.90;;;;;;6160196;23;20264;-92
2021/11/03 10:18:59;;;;;;;11.13;7.07;;;10.20;99.90;;;;;;6145938;23;20202;-91
2021/11/03 10:21:31;;;;;;;8.10;5.27;;;10.20;99.90;;;;;;6158379;23;20211;-92
2021/11/03 10:23:57;;;;;;;13.07;6.90;;;10.10;99.90;;;;;;6208284;23;20203;-91
2021/11/03 10:26:24;;;;;;;9.43;5.80;;;10.10;99.90;;;;;;6208027;23;20199;-91
2021/11/03 10:29:05;;;;;;;6.90;5.27;;;10.20;99.90;;;;;;6159137;23;20159;-91
2021/11/03 10:31:40;;;;;;;9.23;5.83;;;10.20;99.90;;;;;;6160287;23;20580;-92
2021/11/03 10:34:24;;;;;;;8.90;6.20;;;10.20;99.90;;;;;;6160414;23;20217;-91
2021/11/03 10:37:12;;;;;;;8.57;5.40;;;10.20;99.90;;;;;;6160001;23;20195;-92
2021/11/03 10:40:04;;;;;;;9.00;6.30;;;10.40;99.90;;;;;;6210187;23;20206;-91
2021/11/03 10:42:46;;;;;;;8.63;6.33;;;10.50;99.90;;;;;;6209929;23;20290;-91
2021/11/03 10:45:24;;;;;;;7.90;6.23;;;10.60;99.90;;;;;;6159365;23;20584;-91
2021/11/03 10:48:14;;;;;;;7.30;5.27;;;10.70;99.90;;;;;;6154157;23;20199;-88
2021/11/03 10:51:03;;;;;;;4.20;3.73;;;10.70;99.90;;;;;;6137426;23;20274;-89
2021/11/03 10:53:50;;;;;;;10.03;6.23;;;10.60;99.90;;;;;;6177725;23;20499;-95
2021/11/03 10:56:34;;;;;;;7.47;5.70;;;10.50;99.90;;;;;;6160323;23;20285;-94
2021/11/03 10:59:21;;;;;;;8.97;6.50;;;10.30;99.90;;;;;;6162731;23;20157;-94
2021/11/03 11:01:48;;;;;;;10.00;5.73;;;10.20;99.90;;;;;;6166482;23;20175;-95
2021/11/03 11:04:23;;;;;;;13.30;9.47;;;10.10;99.90;;;;;;6169673;23;20298;-94
2021/11/03 11:06:55;;;;;;;14.73;10.83;;;10.30;99.90;;;;;;6213638;23;20198;-96
2021/11/03 11:09:37;;;;;;;10.43;7.40;;;10.40;99.90;;;;;;6186024;23;20218;-93
2021/11/03 11:12:21;;;;;;;10.53;5.40;;;10.40;99.90;;;;;;6212115;23;20198;-94
2021/11/03 11:14:47;;;;;;;7.43;4.77;;;10.40;99.90;;;;;;6166069;23;20210;-95
2021/11/03 11:17:21;;;;;;;8.53;6.47;;;10.40;99.90;;;;;;6165883;23;20151;-95
2021/11/03 11:20:12;;;;;;;9.40;5.67;;;10.40;99.90;;;;;;6166983;23;20162;-95
2021/11/03 11:23:09;;;;;;;15.97;6.23;;;10.50;99.90;;;;;;6167293;23;20229;-94
2021/11/03 11:25:59;;;;;;;7.17;5.80;;;10.40;99.90;;;;;;6162700;23;20175;-93
2021/11/03 11:28:36;;;;;;;11.83;7.33;;;10.40;99.90;;;;;;6217380;23;20171;-94
2021/11/03 11:31:36;;;;;;;7.27;4.20;;;10.70;99.90;;;;;;6168317;23;20261;-94
2021/11/03 11:34:11;;;;;;;11.67;5.27;;;11.30;99.90;;;;;;6174716;23;20509;-95
2021/11/03 11:36:50;;;;;;;10.83;5.83;;;11.80;99.90;;;;;;6199467;23;20214;-95
2021/11/03 11:39:44;;;;;;;6.63;4.83;;;12.00;99.90;;;;;;6218909;23;20206;-92
2021/11/03 11:42:18;;;;;;;5.37;4.57;;;11.70;99.90;;;;;;6220177;23;20262;-95
2021/11/03 11:44:57;;;;;;;5.50;4.00;;;11.70;99.90;;;;;;6191881;23;20195;-94
2021/11/03 11:47:37;;;;;;;5.37;4.70;;;11.80;99.90;;;;;;6170478;23;20189;-94
2021/11/03 11:50:16;;;;;;;8.37;4.67;;;11.90;99.90;;;;;;6168428;23;20143;-94
2021/11/03 11:52:45;;;;;;;8.43;5.30;;;11.70;99.90;;;;;;6167154;23;20454;-95
2021/11/03 11:55:11;;;;;;;7.13;4.07;;;11.80;99.90;;;;;;6201542;23;20210;-87
2021/11/03 11:57:42;;;;;;;17.90;13.17;;;11.90;99.90;;;;;;6201564;23;20210;-92
2021/11/03 12:00:08;;;;;;;7.57;5.13;;;11.90;99.90;;;;;;6151599;23;20210;-92
2021/11/03 12:02:48;;;;;;;5.53;4.00;;;11.90;99.90;;;;;;6201774;23;20195;-87
2021/11/03 12:05:43;;;;;;;7.73;5.03;;;11.80;99.90;;;;;;6201735;23;20146;-88
2021/11/03 12:08:09;;;;;;;7.73;4.73;;;11.80;99.90;;;;;;6202154;23;20146;-87
2021/11/03 12:10:37;;;;;;;7.03;4.73;;;11.70;99.90;;;;;;6202497;23;20158;-88
2021/11/03 12:13:03;;;;;;;8.17;5.50;;;11.40;99.90;;;;;;6151625;23;20516;-87
2021/11/03 12:15:51;;;;;;;6.43;4.33;;;11.30;99.90;;;;;;6200991;23;20207;-87
2021/11/03 12:18:28;;;;;;;7.70;3.97;;;11.50;99.90;;;;;;6201432;23;20229;-88
2021/11/03 12:20:57;;;;;;;7.33;3.93;;;11.60;99.90;;;;;;6201580;23;20835;-86
2021/11/03 12:23:48;;;;;;;5.83;4.77;;;11.90;99.90;;;;;;6200947;23;20198;-85
2021/11/03 12:26:28;;;;;;;6.67;4.00;;;12.20;99.90;;;;;;6151107;23;20147;-86
2021/11/03 12:29:13;;;;;;;7.47;3.97;;;12.60;99.90;;;;;;6201903;23;20180;-89
2021/11/03 12:31:49;;;;;;;8.00;4.43;;;12.90;99.90;;;;;;6201121;23;20245;-86
2021/11/03 12:34:21;;;;;;;6.23;3.33;;;13.40;99.90;;;;;;6200533;23;20638;-86
2021/11/03 12:36:47;;;;;;;5.53;3.07;;;13.60;99.90;;;;;;6150803;23;20544;-87
2021/11/03 12:39:34;;;;;;;6.93;4.33;;;13.80;99.90;;;;;;6200804;23;20209;-89
2021/11/03 12:42:02;;;;;;;7.50;4.97;;;14.00;99.90;;;;;;6135065;23;20214;-88
2021/11/03 12:44:37;;;;;;;6.97;4.83;;;14.20;99.90;;;;;;6176625;23;20267;-88
2021/11/03 12:47:16;;;;;;;7.03;4.77;;;14.00;99.90;;;;;;6178277;23;20469;-88
2021/11/03 12:49:41;;;;;;;8.63;5.03;;;14.00;99.90;;;;;;6152585;23;20147;-87
2021/11/03 12:52:11;;;;;;;6.83;4.50;;;14.00;99.90;;;;;;6200884;23;20666;-88
2021/11/03 12:54:37;;;;;;;9.07;4.23;;;13.90;99.90;;;;;;6152041;23;20197;-94
2021/11/03 12:57:06;;;;;;;8.13;3.77;;;13.80;99.90;;;;;;6131098;23;20289;-88
2021/11/03 12:59:38;;;;;;;7.50;4.57;;;13.70;99.90;;;;;;6151475;23;20324;-87
2021/11/03 13:02:19;;;;;;;6.73;4.07;;;13.50;99.90;;;;;;6151691;23;20171;-88
2021/11/03 13:04:49;;;;;;;6.77;3.73;;;13.20;99.90;;;;;;6151870;23;20162;-87
2021/11/03 13:07:38;;;;;;;7.23;3.27;;;13.00;99.90;;;;;;6151203;23;20199;-87
2021/11/03 13:10:12;;;;;;;6.53;4.33;;;13.00;99.90;;;;;;6151635;23;20202;-88
2021/11/03 13:12:49;;;;;;;5.70;3.60;;;12.90;99.90;;;;;;6201444;23;20229;-88
2021/11/03 13:15:22;;;;;;;5.73;4.20;;;12.90;99.90;;;;;;6151885;23;20209;-90
2021/11/03 13:17:52;;;;;;;8.30;4.93;;;12.90;99.90;;;;;;6151664;23;20198;-89
2021/11/03 13:20:28;;;;;;;10.20;5.37;;;12.80;99.90;;;;;;6177819;23;20206;-90
2021/11/03 13:22:56;;;;;;;7.80;4.37;;;12.70;99.90;;;;;;6152815;23;20154;-88
2021/11/03 13:25:39;;;;;;;7.13;4.10;;;12.60;99.90;;;;;;6152387;23;20214;-88